Hlavní strana
METAR-TAF:

METAR-TAF

Letiště :

Letiště Longyearbyen

Longyearbyen, Norsko

zeměpisná šířka: 78-15N, zeměpisná délka: 015-28E, výška: 2 m

Aktuální stav počasí

Zpráva byla vytvořena před 39 minutami, v 21:50 UTC
Východní vítr 3 kt, proměnlivý mezi východoseverovýchodním a jihovýchodním
Teplota -14°C
Vlhkost vzduchu 72%
Tlak 1006 hPa
Viditelnost 10 km a více
Skoro jasno ve výšce 2000 ft

METAR: ENSB 252150Z 10003KT 070V140 9999 FEW020 M14/M18 Q1006 RMK WIND 1400FT 04005KT

Čas: 23:29 (22:29 UTC)

Předpověď počasí

Předpověď platná od 25 v 18 UTC do 26 v 18 UTC
Jihojihovýchodní vítr 5 kt
Viditelnost 10 km a více
Skoro jasno ve výšce 2500 ft
Polojasno ve výšce 3000 ft
Dočasný
od 26 v 13 UTC do 26 v 18 UTC
Viditelnost: 2000 m
ve výšce 800 ft
sněhové přeháňky

TAF: ENSB 2518/2618 16005KT 9999 FEW025 SCT030 TEMPO 2613/2618 2000 SHSN VV008

Stav a předpovědi počasí z více než 4 000 letišť (zprávy METAR a TAF).

Červené a žluté tečky na mapě představují dostupné meteorologické stanice.

Když kurzor umístíte na tečku, zobrazí se název stanice.

Pak kliknutím zobrazíte stav a předpověď počasí.

Chcete-li změnit mapu, kliknutím na zelené tlačítko se znaménkem +mapu přiblížíte, kliknutím na zelené tlačítko se znaménkem – mapu oddálíte a kliknutím na zelené šipky přejdete na sousední mapy.


METAR-TAF: